createdAt,value
2022-10-31T00:01:43.278Z,93.07
2022-10-31T00:04:29.713Z,89.18
2022-10-31T00:07:07.823Z,105.65
2022-10-31T00:09:51.338Z,101.00
2022-10-31T00:12:31.724Z,92.72
2022-10-31T00:15:13.003Z,99.10
2022-10-31T00:18:06.576Z,102.07
2022-10-31T00:20:58.973Z,100.47
2022-10-31T00:23:34.526Z,97.85
2022-10-31T00:26:12.822Z,100.63
2022-10-31T00:28:52.267Z,108.57
2022-10-31T00:31:42.287Z,101.60
2022-10-31T00:34:24.868Z,108.65
2022-10-31T00:37:05.038Z,119.85
2022-10-31T00:39:46.319Z,118.38
2022-10-31T00:42:29.748Z,113.68
2022-10-31T00:45:11.528Z,99.18
2022-10-31T00:47:45.953Z,107.53
2022-10-31T00:50:35.693Z,93.85
2022-10-31T00:53:24.769Z,97.70
2022-10-31T00:56:09.539Z,103.18
2022-10-31T00:58:51.314Z,104.10
2022-10-31T01:01:29.058Z,96.45
2022-10-31T01:04:13.971Z,106.00
2022-10-31T01:06:56.549Z,101.80
2022-10-31T01:09:40.396Z,101.22
2022-10-31T01:12:24.119Z,100.25
2022-10-31T01:14:59.817Z,115.88
2022-10-31T01:17:43.653Z,110.03
2022-10-31T01:20:32.698Z,109.53
2022-10-31T01:23:13.711Z,98.25
2022-10-31T01:25:59.763Z,110.60
2022-10-31T01:28:38.243Z,105.63
2022-10-31T01:31:16.018Z,109.65
2022-10-31T01:33:54.800Z,93.93
2022-10-31T01:36:52.372Z,110.20
2022-10-31T01:39:37.791Z,104.18
2022-10-31T01:42:33.678Z,99.30
2022-10-31T01:45:14.825Z,103.25
2022-10-31T01:48:02.874Z,105.38
2022-10-31T01:50:41.577Z,106.80
2022-10-31T01:53:25.985Z,100.10
2022-10-31T01:56:05.916Z,114.10
2022-10-31T01:58:44.717Z,115.78
2022-10-31T02:04:16.690Z,114.40
2022-10-31T02:07:01.795Z,123.78
2022-10-31T02:09:47.346Z,119.00
2022-10-31T02:12:35.739Z,118.82
2022-10-31T02:15:22.040Z,118.70
2022-10-31T02:18:17.743Z,122.63
2022-10-31T02:21:13.393Z,123.93
2022-10-31T02:24:05.661Z,112.97
2022-10-31T02:30:05.968Z,108.82
2022-10-31T02:33:14.900Z,109.22
2022-10-31T02:36:34.474Z,111.40
2022-10-31T02:39:31.835Z,119.43
2022-10-31T02:42:17.658Z,127.50
2022-10-31T02:45:15.910Z,115.78
2022-10-31T02:48:09.432Z,123.28
2022-10-31T02:50:55.524Z,134.07
2022-10-31T02:53:36.825Z,116.80
2022-10-31T02:56:20.783Z,119.50
2022-10-31T02:59:11.662Z,125.90
2022-10-31T03:02:10.542Z,126.28
2022-10-31T03:05:01.660Z,106.38
2022-10-31T03:07:56.186Z,123.53
2022-10-31T03:10:57.130Z,118.47
2022-10-31T03:13:53.933Z,117.47
2022-10-31T03:17:00.839Z,111.22
2022-10-31T03:19:42.552Z,103.15
2022-10-31T03:22:29.076Z,107.43
2022-10-31T03:25:15.914Z,103.28
2022-10-31T03:27:57.559Z,101.47
2022-10-31T03:30:43.470Z,111.43
2022-10-31T03:33:27.549Z,110.38
2022-10-31T03:36:10.767Z,104.68
2022-10-31T03:38:57.340Z,112.50
2022-10-31T03:41:39.950Z,100.40
2022-10-31T03:44:16.652Z,100.97
2022-10-31T03:47:01.810Z,103.32
2022-10-31T03:49:43.092Z,95.47
2022-10-31T03:52:54.887Z,114.75
2022-10-31T03:55:43.257Z,102.18
2022-10-31T03:59:04.688Z,97.78
2022-10-31T04:01:53.985Z,112.05
2022-10-31T04:04:36.557Z,119.85
2022-10-31T04:07:12.828Z,102.45
2022-10-31T04:09:50.295Z,103.30
2022-10-31T04:12:35.770Z,119.53
2022-10-31T04:15:39.270Z,115.32
2022-10-31T04:18:23.498Z,119.82
2022-10-31T04:21:19.678Z,110.30
2022-10-31T04:23:55.013Z,98.82
2022-10-31T04:26:36.857Z,105.32
2022-10-31T04:29:21.153Z,98.00
2022-10-31T04:31:57.599Z,101.97
2022-10-31T04:34:47.775Z,107.28
2022-10-31T04:37:28.354Z,100.63
2022-10-31T04:40:12.659Z,115.25
2022-10-31T04:43:04.949Z,114.40
2022-10-31T04:45:54.548Z,111.35
2022-10-31T04:48:43.773Z,106.75
2022-10-31T04:51:28.640Z,104.43
2022-10-31T04:54:18.505Z,107.05
2022-10-31T04:57:15.540Z,93.47
2022-10-31T05:00:00.763Z,94.63
2022-10-31T05:02:53.510Z,79.85
2022-10-31T05:05:54.228Z,87.57
2022-10-31T05:08:39.543Z,85.07
2022-10-31T05:11:25.642Z,99.20
2022-10-31T05:14:13.563Z,100.35
2022-10-31T05:17:27.137Z,91.75
2022-10-31T05:20:33.866Z,83.97
2022-10-31T05:23:33.040Z,88.80
2022-10-31T05:26:16.544Z,86.57
2022-10-31T05:28:57.672Z,92.20
2022-10-31T05:31:41.016Z,98.43
2022-10-31T05:34:32.365Z,89.07
2022-10-31T05:37:31.503Z,86.05
2022-10-31T05:40:13.977Z,89.13
2022-10-31T05:42:47.683Z,86.20
2022-10-31T05:45:24.115Z,82.30
2022-10-31T05:48:11.663Z,92.45
2022-10-31T05:51:16.680Z,83.63
2022-10-31T05:54:01.423Z,83.70
2022-10-31T05:56:52.547Z,82.25
2022-10-31T05:59:35.639Z,79.63
2022-10-31T06:02:19.694Z,70.90
2022-10-31T06:05:20.716Z,70.25
2022-10-31T06:08:09.427Z,76.85
2022-10-31T06:10:49.110Z,75.38
2022-10-31T06:13:35.805Z,74.38
2022-10-31T06:16:27.942Z,76.72
2022-10-31T06:19:23.778Z,73.32
2022-10-31T06:21:53.554Z,78.93
2022-10-31T06:24:28.954Z,69.68
2022-10-31T06:27:46.680Z,76.40
2022-10-31T06:30:23.852Z,75.90
2022-10-31T06:33:10.545Z,79.40
2022-10-31T06:36:07.213Z,63.63
2022-10-31T06:38:51.250Z,64.20
2022-10-31T06:41:42.718Z,61.53
2022-10-31T06:44:22.720Z,66.38
2022-10-31T06:47:21.393Z,62.92
2022-10-31T06:50:22.648Z,62.58
2022-10-31T06:55:59.962Z,61.63
2022-10-31T06:58:56.516Z,58.65
2022-10-31T07:01:57.763Z,61.85
2022-10-31T07:04:35.576Z,54.85
2022-10-31T07:07:16.923Z,55.78
2022-10-31T07:10:04.682Z,57.80
2022-10-31T07:13:14.565Z,65.00
2022-10-31T07:15:59.071Z,53.50
2022-10-31T07:18:43.359Z,54.45
2022-10-31T07:21:29.667Z,58.07
2022-10-31T07:24:08.896Z,55.30
2022-10-31T07:26:55.433Z,52.58
2022-10-31T07:29:37.155Z,57.97
2022-10-31T07:32:22.960Z,63.60
2022-10-31T07:35:15.026Z,48.10
2022-10-31T07:38:19.599Z,55.50
2022-10-31T07:41:01.330Z,52.28
2022-10-31T07:43:48.342Z,49.17
2022-10-31T07:46:51.791Z,55.25
2022-10-31T07:49:53.460Z,48.45
2022-10-31T07:52:56.428Z,50.28
2022-10-31T07:55:47.425Z,52.40
2022-10-31T07:58:28.500Z,53.92
2022-10-31T08:01:07.013Z,47.97
2022-10-31T08:03:59.482Z,49.17
2022-10-31T08:07:08.330Z,41.08
2022-10-31T08:09:57.079Z,47.33
2022-10-31T08:12:38.895Z,46.88
2022-10-31T08:15:27.934Z,48.70
2022-10-31T08:18:09.703Z,48.70
2022-10-31T08:20:52.801Z,47.05
2022-10-31T08:23:30.606Z,49.50
2022-10-31T08:26:09.433Z,47.10
2022-10-31T08:28:56.823Z,48.50
2022-10-31T08:31:38.938Z,52.97
2022-10-31T08:34:47.651Z,52.70
2022-10-31T08:37:46.961Z,49.55
2022-10-31T08:40:25.867Z,47.55
2022-10-31T08:43:38.221Z,42.88
2022-10-31T08:46:16.891Z,48.00
2022-10-31T08:48:56.332Z,41.40
2022-10-31T08:51:38.633Z,49.22
2022-10-31T08:54:19.558Z,48.28
2022-10-31T08:57:04.293Z,50.17
2022-10-31T08:59:54.810Z,45.90
2022-10-31T09:02:58.354Z,48.03
2022-10-31T09:05:34.115Z,45.97
2022-10-31T09:08:16.359Z,42.10
2022-10-31T09:11:05.513Z,41.05
2022-10-31T09:14:04.062Z,40.08
2022-10-31T09:16:47.741Z,40.38
2022-10-31T09:19:32.756Z,39.80
2022-10-31T09:22:11.012Z,47.53
2022-10-31T09:24:52.157Z,41.03
2022-10-31T09:27:36.826Z,45.10
2022-10-31T09:30:15.179Z,71.50
2022-10-31T09:32:49.368Z,45.50
2022-10-31T09:35:44.392Z,50.65
2022-10-31T09:38:29.902Z,47.55
2022-10-31T09:41:27.639Z,40.90
2022-10-31T09:44:24.342Z,43.33
2022-10-31T09:47:47.391Z,41.03
2022-10-31T09:51:20.216Z,47.63
2022-10-31T09:54:20.473Z,43.17
2022-10-31T09:57:01.273Z,48.38
2022-10-31T09:59:45.822Z,47.90
2022-10-31T10:02:37.873Z,51.90
2022-10-31T10:05:53.368Z,42.28
2022-10-31T10:08:39.778Z,40.40
2022-10-31T10:11:40.824Z,42.78
2022-10-31T10:14:51.587Z,42.72
2022-10-31T10:17:57.350Z,44.30
2022-10-31T10:20:52.957Z,42.70
2022-10-31T10:24:05.976Z,39.83
2022-10-31T10:26:57.412Z,39.35
2022-10-31T10:29:48.039Z,41.80
2022-10-31T10:32:37.144Z,41.60
2022-10-31T10:35:36.548Z,38.30
2022-10-31T10:38:25.923Z,42.30
2022-10-31T10:41:11.694Z,36.83
2022-10-31T10:43:52.661Z,39.55
2022-10-31T10:46:56.812Z,42.92
2022-10-31T10:49:51.745Z,51.15
2022-10-31T10:52:50.976Z,46.47
2022-10-31T10:55:58.767Z,40.70
2022-10-31T10:58:37.398Z,44.58
2022-10-31T11:01:25.810Z,39.22
2022-10-31T11:04:03.814Z,35.10
2022-10-31T11:06:43.650Z,36.30
2022-10-31T11:09:31.682Z,34.25
2022-10-31T11:12:33.835Z,40.05
2022-10-31T11:15:21.041Z,41.33
2022-10-31T11:18:04.877Z,37.45
2022-10-31T11:20:57.601Z,45.20
2022-10-31T11:23:39.063Z,41.83
2022-10-31T11:26:25.852Z,41.17
2022-10-31T11:29:04.858Z,44.55
2022-10-31T11:31:49.585Z,35.55
2022-10-31T11:34:37.672Z,35.45
2022-10-31T11:37:28.054Z,40.80
2022-10-31T11:40:08.607Z,38.80
2022-10-31T11:42:56.233Z,45.65
2022-10-31T11:45:37.964Z,41.92
2022-10-31T11:48:26.484Z,47.63
2022-10-31T11:51:06.969Z,48.25
2022-10-31T11:53:50.674Z,49.45
2022-10-31T11:56:36.999Z,46.67
2022-10-31T11:59:32.275Z,45.25
2022-10-31T12:02:21.343Z,50.55
2022-10-31T12:05:12.932Z,51.85
2022-10-31T12:07:54.729Z,47.70
2022-10-31T12:10:49.835Z,39.55
2022-10-31T12:13:45.741Z,42.85
2022-10-31T12:16:24.884Z,50.47
2022-10-31T12:19:22.268Z,48.15
2022-10-31T12:22:32.485Z,45.75
2022-10-31T12:25:17.313Z,52.05
2022-10-31T12:28:12.886Z,48.60
2022-10-31T12:31:24.365Z,48.80
2022-10-31T12:34:16.416Z,46.42
2022-10-31T12:37:31.684Z,51.35
2022-10-31T12:40:14.815Z,57.38
2022-10-31T12:43:43.029Z,41.60
2022-10-31T12:46:58.559Z,48.78
2022-10-31T12:49:56.291Z,49.65
2022-10-31T12:55:43.004Z,51.08
2022-10-31T12:58:54.099Z,49.35
2022-10-31T13:01:46.733Z,55.42
2022-10-31T13:04:19.521Z,53.13
2022-10-31T13:07:10.695Z,52.25
2022-10-31T13:10:00.751Z,54.78
2022-10-31T13:12:43.094Z,50.22
2022-10-31T13:16:14.647Z,49.63
2022-10-31T13:19:04.037Z,49.28
2022-10-31T13:22:04.994Z,55.05
2022-10-31T13:24:51.812Z,51.50
2022-10-31T13:27:48.838Z,50.78
2022-10-31T13:30:33.658Z,52.90
2022-10-31T13:34:10.878Z,64.43
2022-10-31T13:37:18.945Z,61.67
2022-10-31T13:39:49.883Z,48.75
2022-10-31T13:42:42.831Z,57.22
2022-10-31T13:45:30.439Z,50.83
2022-10-31T13:48:18.206Z,57.47
2022-10-31T13:51:12.000Z,51.58
2022-10-31T13:54:59.645Z,55.13
2022-10-31T13:58:01.621Z,60.33
2022-10-31T14:00:45.118Z,52.85
2022-10-31T14:03:57.720Z,53.10
2022-10-31T14:06:49.414Z,58.78
2022-10-31T14:09:36.208Z,60.20
2022-10-31T14:12:22.469Z,58.25
2022-10-31T14:15:07.679Z,54.53
2022-10-31T14:18:00.625Z,57.40
2022-10-31T14:20:57.895Z,60.72
2022-10-31T14:23:45.497Z,61.08
2022-10-31T14:26:29.441Z,64.10
2022-10-31T14:29:26.761Z,68.50
2022-10-31T14:32:17.625Z,69.13
2022-10-31T14:35:17.563Z,63.75
2022-10-31T14:38:10.854Z,68.13
2022-10-31T14:40:51.153Z,59.65
2022-10-31T14:43:49.608Z,68.57
2022-10-31T14:47:31.392Z,60.63
2022-10-31T14:50:34.305Z,64.28
2022-10-31T14:53:20.346Z,72.20
2022-10-31T14:56:06.754Z,62.55
2022-10-31T14:58:47.718Z,62.03
2022-10-31T15:02:10.423Z,61.60
2022-10-31T15:05:05.424Z,67.45
2022-10-31T15:07:59.176Z,67.90
2022-10-31T15:10:46.683Z,68.93
2022-10-31T15:13:31.240Z,67.82
2022-10-31T15:16:21.676Z,71.13
2022-10-31T15:19:01.812Z,69.50
2022-10-31T15:22:05.734Z,58.78
2022-10-31T15:24:50.154Z,68.65
2022-10-31T15:27:25.693Z,69.65
2022-10-31T15:30:19.926Z,63.85
2022-10-31T15:32:59.579Z,54.92
2022-10-31T15:35:49.222Z,62.08
2022-10-31T15:38:27.315Z,62.72
2022-10-31T15:41:34.214Z,57.83
2022-10-31T15:44:23.132Z,53.22
2022-10-31T15:47:22.617Z,57.72
2022-10-31T15:49:55.009Z,66.40
2022-10-31T15:52:48.156Z,54.60
2022-10-31T15:55:46.795Z,57.50
2022-10-31T15:58:28.083Z,66.40
2022-10-31T16:01:25.497Z,57.17
2022-10-31T16:04:20.962Z,60.88
2022-10-31T16:07:21.793Z,61.08
2022-10-31T16:10:22.942Z,59.95
2022-10-31T16:13:07.282Z,57.17
2022-10-31T16:16:08.927Z,67.75
2022-10-31T16:19:18.294Z,63.53
2022-10-31T16:22:16.965Z,58.28
2022-10-31T16:25:01.330Z,58.25
2022-10-31T16:27:53.881Z,63.85
2022-10-31T16:30:32.119Z,66.55
2022-10-31T16:33:12.424Z,63.38
2022-10-31T16:35:48.792Z,74.22
2022-10-31T16:38:37.978Z,75.00
2022-10-31T16:41:18.474Z,66.13
2022-10-31T16:44:18.468Z,64.22
2022-10-31T16:47:14.261Z,56.90
2022-10-31T16:49:50.732Z,64.18
2022-10-31T16:52:26.084Z,71.15
2022-10-31T16:55:10.431Z,73.22
2022-10-31T16:57:55.766Z,64.97
2022-10-31T17:00:40.869Z,70.10
2022-10-31T17:03:21.607Z,65.07
2022-10-31T17:06:08.575Z,72.97
2022-10-31T17:08:55.141Z,70.15
2022-10-31T17:11:49.477Z,66.57
2022-10-31T17:14:33.370Z,64.35
2022-10-31T17:20:20.674Z,62.35
2022-10-31T17:23:00.247Z,61.78
2022-10-31T17:25:36.385Z,71.30
2022-10-31T17:28:16.349Z,72.45
2022-10-31T17:31:00.909Z,72.65
2022-10-31T17:33:45.681Z,76.35
2022-10-31T17:36:34.336Z,69.15
2022-10-31T17:39:20.706Z,67.43
2022-10-31T17:42:13.036Z,72.78
2022-10-31T17:44:57.775Z,81.30
2022-10-31T17:47:35.704Z,94.47
2022-10-31T17:50:33.985Z,86.28
2022-10-31T17:53:25.229Z,85.50
2022-10-31T17:56:08.655Z,84.93
2022-10-31T17:58:38.879Z,87.93
2022-10-31T18:01:25.368Z,80.67
2022-10-31T18:04:12.514Z,83.50
2022-10-31T18:09:35.099Z,80.32
2022-10-31T18:12:13.677Z,84.55
2022-10-31T18:14:54.405Z,83.70
2022-10-31T18:17:42.408Z,87.32
2022-10-31T18:20:35.408Z,90.22
2022-10-31T18:23:23.162Z,83.80
2022-10-31T18:26:10.247Z,80.35
2022-10-31T18:29:01.871Z,81.13
2022-10-31T18:31:54.386Z,88.88
2022-10-31T18:34:41.119Z,82.22
2022-10-31T18:37:24.899Z,104.90
2022-10-31T18:39:58.652Z,89.05
2022-10-31T18:42:44.412Z,99.93
2022-10-31T18:45:33.881Z,100.70
2022-10-31T18:48:20.132Z,86.45
2022-10-31T18:50:59.898Z,79.97
2022-10-31T18:53:36.748Z,72.57
2022-10-31T18:56:20.914Z,78.28
2022-10-31T18:59:09.196Z,82.15
2022-10-31T19:01:47.912Z,64.03
2022-10-31T19:04:28.466Z,70.05
2022-10-31T19:07:23.803Z,74.60
2022-10-31T19:10:07.926Z,75.28
2022-10-31T19:12:58.572Z,84.40
2022-10-31T19:15:39.854Z,78.70
2022-10-31T19:18:27.670Z,79.97
2022-10-31T19:21:02.402Z,80.82
2022-10-31T19:23:50.782Z,92.68
2022-10-31T19:26:33.658Z,81.68
2022-10-31T19:29:17.664Z,100.88
2022-10-31T19:32:07.183Z,101.50
2022-10-31T19:34:53.872Z,99.68
2022-10-31T19:37:38.708Z,99.18
2022-10-31T19:40:17.516Z,103.35
2022-10-31T19:43:07.545Z,104.78
2022-10-31T19:45:55.539Z,124.18
2022-10-31T19:48:36.673Z,133.30
2022-10-31T19:51:31.801Z,115.25
2022-10-31T19:54:21.817Z,119.60
2022-10-31T19:57:05.454Z,150.07
2022-10-31T19:59:47.540Z,134.15
2022-10-31T20:02:37.349Z,144.52
2022-10-31T20:05:17.649Z,141.63
2022-10-31T20:07:46.371Z,154.35
2022-10-31T20:10:28.149Z,157.52
2022-10-31T20:13:08.824Z,170.50
2022-10-31T20:15:52.713Z,162.05
2022-10-31T20:18:40.648Z,165.40
2022-10-31T20:21:32.808Z,173.23
2022-10-31T20:24:22.742Z,164.15
2022-10-31T20:27:00.689Z,147.05
2022-10-31T20:29:42.648Z,188.40
2022-10-31T20:32:28.548Z,168.55
2022-10-31T20:35:15.411Z,155.77
2022-10-31T20:37:57.476Z,155.70
2022-10-31T20:40:43.451Z,140.43
2022-10-31T20:43:32.630Z,163.13
2022-10-31T20:46:29.289Z,152.55
2022-10-31T20:49:12.643Z,145.82
2022-10-31T20:51:58.579Z,141.88
2022-10-31T20:54:44.422Z,140.10
2022-10-31T20:57:29.226Z,150.13
2022-10-31T21:00:08.307Z,126.05
2022-10-31T21:02:55.643Z,148.23
2022-10-31T21:05:36.631Z,120.38
2022-10-31T21:11:21.662Z,118.07
2022-10-31T21:14:05.532Z,116.03
2022-10-31T21:16:52.044Z,100.07
2022-10-31T21:19:34.524Z,110.50
2022-10-31T21:22:28.189Z,102.57
2022-10-31T21:25:16.382Z,99.75
2022-10-31T21:27:54.625Z,105.00
2022-10-31T21:30:40.654Z,94.72
2022-10-31T21:33:33.830Z,100.38
2022-10-31T21:36:19.039Z,96.32
2022-10-31T21:39:07.634Z,107.95
2022-10-31T21:41:58.048Z,103.13
2022-10-31T21:44:39.737Z,110.97
2022-10-31T21:47:20.683Z,104.78
2022-10-31T21:50:04.747Z,91.60
2022-10-31T21:52:36.858Z,108.60
2022-10-31T21:55:30.664Z,104.03
2022-10-31T21:58:18.271Z,106.50
2022-10-31T22:00:56.667Z,118.45
2022-10-31T22:03:45.771Z,116.60
2022-10-31T22:06:22.818Z,93.10
2022-10-31T22:09:08.389Z,109.10
2022-10-31T22:11:52.379Z,103.00
2022-10-31T22:14:47.837Z,99.22
2022-10-31T22:17:38.185Z,109.85
2022-10-31T22:20:29.300Z,106.72
2022-10-31T22:23:08.600Z,118.63
2022-10-31T22:25:46.754Z,105.15
2022-10-31T22:28:38.477Z,88.50
2022-10-31T22:31:16.529Z,87.05
2022-10-31T22:33:59.657Z,100.45
2022-10-31T22:36:46.656Z,94.97
2022-10-31T22:39:31.707Z,89.45
2022-10-31T22:42:12.378Z,93.18
2022-10-31T22:45:03.612Z,85.20
2022-10-31T22:47:43.844Z,85.97
2022-10-31T22:50:29.487Z,87.60
2022-10-31T22:53:15.780Z,89.85
2022-10-31T22:55:56.645Z,87.38
2022-10-31T22:58:29.090Z,90.03
2022-10-31T23:01:24.008Z,86.00
2022-10-31T23:04:00.750Z,83.15
2022-10-31T23:06:42.668Z,84.45
2022-10-31T23:09:35.511Z,86.28
2022-10-31T23:12:48.083Z,72.70
2022-10-31T23:15:32.627Z,85.00
2022-10-31T23:18:48.039Z,91.72
2022-10-31T23:21:44.028Z,83.32
2022-10-31T23:24:33.125Z,86.60
2022-10-31T23:27:21.675Z,83.97
2022-10-31T23:30:17.222Z,98.78
2022-10-31T23:33:07.728Z,81.45
2022-10-31T23:35:49.572Z,90.03
2022-10-31T23:38:54.108Z,86.13
2022-10-31T23:41:42.380Z,84.13
2022-10-31T23:44:26.179Z,86.55
2022-10-31T23:47:09.910Z,85.40
2022-10-31T23:49:56.436Z,87.63
2022-10-31T23:52:51.443Z,86.05
2022-10-31T23:55:28.881Z,79.90
2022-10-31T23:58:08.610Z,79.32
